Marola — IBFL — position and weather

sailwx.info

Track history (hours):
 
Tides and Currents Weather Stations Pressure Air Temp Water Temp Dewpoint Dewpoint Depression Visibility Wind Speed Wind Dir Waves Ship Positions

Marola

Last reported at 2016-Aug-25 22:25 UTC. Time now 2016-Aug-31 04:27 UTC.
Position S 24°36' W 045°04'.

Length 180 m; draft 7.8 m.

Type: Ship (hazmat cat B). MMSI: 247094900.

Date/timePositionNaut miles runAvg speedWind from/ knotsBaromVisibWave heightAir tempDewpointWater temp
2016-Aug-25 22:25S 24°36' W 045°04'6513.4
2016-Aug-25 17:33S 24°23' W 046°14'1414.5
2016-Aug-25 16:33S 24°11' W 046°23'1211.9
2016-Aug-25 15:33S 23°60' W 046°19'5 5.3
2016-Aug-25 14:33S 23°55' W 046°22'0 0.0
2016-Aug-24 04:11S 23°55' W 046°22'4 7.0
2016-Aug-24 03:34S 23°57' W 046°18'7 7.2
2016-Aug-24 02:34S 24°04' W 046°22'8 7.8
2016-Aug-24 01:34S 24°11' W 046°23'8 8.2
2016-Aug-24 00:34S 24°18' W 046°18'8 8.4
2016-Aug-23 23:33S 24°25' W 046°13'  
Track history (hours):
 
Tides and Currents Weather Stations Pressure Air Temp Water Temp Dewpoint Dewpoint Depression Visibility Wind Speed Wind Dir Waves Ship Positions

Marola

Last reported at 2016-Aug-25 22:25 UTC. Time now 2016-Aug-31 04:27 UTC.
Position S 24°36' W 045°04'.

Length 180 m; draft 7.8 m.

Type: Ship (hazmat cat B). MMSI: 247094900.

Date/timePositionNaut miles runAvg speedWind from/ knotsBaromVisibWave heightAir tempDewpointWater temp
2016-Aug-25 22:25S 24°36' W 045°04'6513.4
2016-Aug-25 17:33S 24°23' W 046°14'1414.5
2016-Aug-25 16:33S 24°11' W 046°23'1211.9
2016-Aug-25 15:33S 23°60' W 046°19'5 5.3
2016-Aug-25 14:33S 23°55' W 046°22'0 0.0
2016-Aug-24 04:11S 23°55' W 046°22'4 7.0
2016-Aug-24 03:34S 23°57' W 046°18'7 7.2
2016-Aug-24 02:34S 24°04' W 046°22'8 7.8
2016-Aug-24 01:34S 24°11' W 046°23'8 8.2
2016-Aug-24 00:34S 24°18' W 046°18'8 8.4
2016-Aug-23 23:33S 24°25' W 046°13'  

Dump ship's entire track history